Terminal Aerodrome Forecast
Issued by NWS

Home | Current Version | Previous Version | Text Only | Print | Product List | Glossary On
Versions: 1 2 3 4 5 6 7 8 9 10 11 12 13 14 15 16 17 18 19 20
000
FTUS41 KALY 310500
TAFPSF
TAF
KPSF 310530Z 3106/0106 VRB03KT P6SM FEW045
      TEMPO 3107/3111 3SM BR
     FM311300 VRB03KT P6SM SCT045 BKN150
     FM311700 10005KT P6SM OVC045
     FM010100 05004KT P6SM OVC035=

USA.gov is the U.S. government's official web portal to all federal, state and local government web resources and services.